Nyk Olympus — 3EOS7 — position and weather

sailwx.info

Track history (hours):
 
Tides and Currents Weather Stations Pressure Air Temp Water Temp Dewpoint Dewpoint Depression Visibility Wind Speed Wind Dir Waves Ship Positions

Nyk Olympus

Last reported at 2014-Sep-08 05:17 UTC. Time now 2014-Sep-20 03:55 UTC.
Position N 36°29' E 013°59'.
Warning: this ship's position is 11 days out of date.

Length 335 m; draft 12.6 m.

Type: Ship. MMSI: 372478000.

Date/timePositionNaut miles runAvg speedWind from/ knotsBaromVisibWave heightAir tempDewpointWater temp
2014-Sep-08 05:17N 36°29' E 013°59'1318.1
2014-Sep-08 04:34N 36°33' E 013°43'1818.0
2014-Sep-08 03:34N 36°38' E 013°22'1717.3
2014-Sep-08 02:34N 36°43' E 013°01'1817.1
2014-Sep-08 01:31N 36°49' E 012°40'5016.9
2014-Sep-07 22:34N 37°07' E 011°41'1717.3
2014-Sep-07 21:34N 37°15' E 011°22'1717.1
2014-Sep-07 20:34N 37°23' E 011°03'1717.1
2014-Sep-07 19:34N 37°27' E 010°42'1717.3
2014-Sep-07 18:34N 37°32' E 010°21'1817.2
2014-Sep-07 17:31N 37°33' E 009°59'1717.4
2014-Sep-07 16:33N 37°30' E 009°38'1717.3
2014-Sep-07 15:33N 37°25' E 009°17'1717.0
2014-Sep-07 14:33N 37°21' E 008°56'1716.6
2014-Sep-07 13:32N 37°18' E 008°35'1616.4
2014-Sep-07 12:33N 37°18' E 008°15'1616.4
2014-Sep-07 11:32N 37°18' E 007°54'18516.9
2014-Sep-07 00:33N 37°11' E 004°01'1717.1
2014-Sep-06 23:33N 37°08' E 003°40'1717.0
2014-Sep-06 22:33N 37°05' E 003°19'1817.6
2014-Sep-06 21:33N 37°03' E 002°57'1817.7
2014-Sep-06 20:33N 37°00' E 002°35'1717.3
2014-Sep-06 19:33N 36°58' E 002°14'1817.7
2014-Sep-06 18:33N 36°54' E 001°52'1917.2
2014-Sep-06 17:25N 36°51' E 001°28'1717.5
2014-Sep-06 16:27N 36°48' E 001°07'1817.9
2014-Sep-06 15:25N 36°45' E 000°44'1618.4
2014-Sep-06 14:33N 36°43' E 000°25'2018.0
2014-Sep-06 13:27N 36°40' E 000°00'1618.0
2014-Sep-06 12:33N 36°38' W 000°20'1817.6
2014-Sep-06 11:33N 36°35' W 000°41'1717.2
2014-Sep-06 10:33N 36°32' W 001°02'1817.2
2014-Sep-06 09:30N 36°29' W 001°25'2017.3
2014-Sep-06 08:19N 36°25' W 001°50'17517.9
2014-Sep-05 22:34N 35°58' W 005°24'15417.0
2014-Sep-05 13:32N 36°26' W 008°31'1717.2
2014-Sep-05 12:32N 36°30' W 008°52'3316.6
2014-Sep-05 10:33N 36°45' W 009°28'2016.9
2014-Sep-05 09:20N 37°05' W 009°36'1418.5
2014-Sep-05 08:33N 37°19' W 009°41'1818.1
2014-Sep-05 07:33N 37°36' W 009°46'11818.3
2014-Sep-05 01:04N 39°34' W 010°04'71716.9
2014-Sep-03 06:33N 49°53' W 001°36'2220.6
2014-Sep-03 05:29N 49°46' W 001°04'1819.2
2014-Sep-03 04:33N 49°39' W 000°39'1818.0
2014-Sep-03 03:34N 49°33' W 000°13'1312.8
2014-Sep-03 02:33N 49°28' E 000°06'2 2.3
2014-Sep-03 01:33N 49°28' E 000°09'0 0.0
2014-Sep-03 00:33N 49°28' E 000°09'0 0.0
2014-Sep-02 23:33N 49°28' E 000°09'0 0.0
2014-Sep-02 22:33N 49°28' E 000°09'0 0.0
2014-Sep-02 21:33N 49°28' E 000°09'0 0.0
2014-Sep-02 20:33N 49°28' E 000°09'0 0.0
2014-Sep-02 19:33N 49°28' E 000°09'0 0.0
2014-Sep-02 18:33N 49°28' E 000°09'0 0.0
2014-Sep-02 17:33N 49°28' E 000°09'0 0.0
2014-Sep-02 16:33N 49°28' E 000°09'0 0.0
2014-Sep-02 15:33N 49°28' E 000°09'0 0.0
2014-Sep-02 14:33N 49°28' E 000°09'0 0.0
2014-Sep-02 13:33N 49°28' E 000°09'0 0.0
2014-Sep-02 12:33N 49°28' E 000°09'0 0.0
2014-Sep-02 11:33N 49°28' E 000°09'0 0.0
2014-Sep-02 10:33N 49°28' E 000°09'0 0.0
2014-Sep-02 09:33N 49°28' E 000°09'0 0.0
2014-Sep-02 08:33N 49°28' E 000°09'0 0.0
2014-Sep-02 07:33N 49°28' E 000°09'0 0.0
2014-Sep-02 06:33N 49°28' E 000°09'0 0.0
2014-Sep-02 05:33N 49°28' E 000°09'0 0.0
2014-Sep-02 04:33N 49°28' E 000°09'0 0.0
2014-Sep-02 03:33N 49°28' E 000°09'0 0.0
2014-Sep-02 02:33N 49°28' E 000°09'0 0.0
2014-Sep-02 01:33N 49°28' E 000°09'0 0.0
2014-Sep-02 00:33N 49°28' E 000°09'0 0.0
2014-Sep-01 23:33N 49°28' E 000°09'0 0.0
2014-Sep-01 22:33N 49°28' E 000°09'0 0.0
2014-Sep-01 21:33N 49°28' E 000°09'0 0.0
2014-Sep-01 20:33N 49°28' E 000°09'0 0.0
2014-Sep-01 19:33N 49°28' E 000°09'0 0.0
2014-Sep-01 18:33N 49°28' E 000°09'0 0.0
2014-Sep-01 17:27N 49°28' E 000°09'3 3.7
2014-Sep-01 16:33N 49°29' E 000°05'1110.9
2014-Sep-01 15:34N 49°33' W 000°11'1312.4
2014-Sep-01 14:32N 49°45' W 000°19'5317.4
2014-Sep-01 11:28N 50°33' W 000°55'1010.8
2014-Sep-01 10:34N 50°43' W 000°58'1413.7
2014-Sep-01 09:33N 50°48' W 001°17'8 7.9
2014-Sep-01 08:33N 50°54' W 001°26'1 0.9
2014-Sep-01 07:30N 50°54' W 001°27'0 0.0
2014-Sep-01 06:30N 50°54' W 001°27'0 0.0
2014-Sep-01 05:33N 50°54' W 001°27'0 0.0
2014-Sep-01 04:33N 50°54' W 001°27'0 0.0
2014-Sep-01 03:33N 50°54' W 001°27'0 0.0
2014-Sep-01 02:33N 50°54' W 001°27'0 0.0
2014-Sep-01 01:33N 50°54' W 001°27'0 0.0
2014-Sep-01 00:33N 50°54' W 001°27'0 0.0
2014-Aug-31 23:33N 50°54' W 001°27'0 0.0
2014-Aug-31 22:30N 50°54' W 001°27'0 0.0
2014-Aug-31 21:33N 50°54' W 001°27'0 0.0
2014-Aug-31 20:33N 50°54' W 001°27'0 0.0
2014-Aug-31 19:33N 50°54' W 001°27'0 0.0
2014-Aug-31 18:33N 50°54' W 001°27'0 0.0
2014-Aug-31 17:30N 50°54' W 001°27'0 0.0
2014-Aug-31 16:33N 50°54' W 001°27'0 0.0
2014-Aug-31 15:30N 50°54' W 001°27'0 0.0
2014-Aug-31 14:33N 50°54' W 001°27'0 0.0
2014-Aug-31 13:30N 50°54' W 001°27'0 0.0
2014-Aug-31 12:33N 50°54' W 001°27'0 0.0
2014-Aug-31 11:33N 50°54' W 001°27'0 0.0
2014-Aug-31 10:30N 50°54' W 001°27'0 0.0
2014-Aug-31 09:33N 50°54' W 001°27'0 0.0
2014-Aug-31 08:30N 50°54' W 001°27'0 0.0
2014-Aug-31 07:33N 50°54' W 001°27'1 1.1
2014-Aug-31 06:33N 50°54' W 001°26'7 7.1
2014-Aug-31 05:34N 50°49' W 001°18'1110.7
2014-Aug-31 04:33N 50°44' W 001°03'1111.0
2014-Aug-31 03:34N 50°36' W 000°52'1414.2
2014-Aug-31 02:33N 50°33' W 000°30'1716.9
2014-Aug-31 01:33N 50°33' W 000°03'1716.8
2014-Aug-31 00:34N 50°37' E 000°23'1616.3
2014-Aug-30 23:33N 50°43' E 000°46'1817.7
2014-Aug-30 22:33N 50°52' E 001°10'2020.1
2014-Aug-30 21:33N 51°05' E 001°34'2019.6
2014-Aug-30 20:33N 51°21' E 001°53'1818.1
2014-Aug-30 19:33N 51°36' E 002°09'1717.3
2014-Aug-30 18:33N 51°49' E 002°28'9317.2
2014-Aug-30 13:10N 53°01' E 004°03'1118.8
2014-Aug-30 12:33N 53°08' E 004°18'3617.8
2014-Aug-30 10:32N 53°34' E 005°00'1717.5
2014-Aug-30 09:33N 53°40' E 005°27'1717.4
2014-Aug-30 08:33N 53°45' E 005°55'5717.9
2014-Aug-30 05:22N 53°60' E 007°29'1518.1
2014-Aug-30 04:33N 54°02' E 007°53'1414.2
2014-Aug-30 03:33N 54°00' E 008°17'1514.9
2014-Aug-30 02:33N 53°55' E 008°41'1010.3
2014-Aug-30 01:33N 53°51' E 008°57'9 8.6
2014-Aug-30 00:33N 53°53' E 009°12'1211.6
2014-Aug-29 23:33N 53°45' E 009°25'1312.9
2014-Aug-29 22:34N 53°34' E 009°39'1010.1
2014-Aug-29 21:34N 53°32' E 009°55'2 2.1
2014-Aug-29 20:31N 53°30' E 009°56'0 0.0
2014-Aug-29 19:31N 53°30' E 009°56'0 0.0
2014-Aug-29 18:31N 53°30' E 009°56'0 0.0
2014-Aug-29 17:31N 53°30' E 009°56'0 0.0
2014-Aug-29 16:28N 53°30' E 009°56'0 0.0
2014-Aug-29 15:31N 53°30' E 009°56'0 0.0
2014-Aug-29 14:31N 53°30' E 009°56'0 0.0
2014-Aug-29 13:31N 53°30' E 009°56'0 0.0
2014-Aug-29 12:31N 53°30' E 009°56'0 0.0
2014-Aug-29 11:31N 53°30' E 009°56'0 0.0
2014-Aug-29 10:31N 53°30' E 009°56'0 0.0
2014-Aug-29 09:31N 53°30' E 009°56'0 0.0
2014-Aug-29 08:25N 53°30' E 009°56'0 0.0
2014-Aug-29 07:31N 53°30' E 009°56'0 0.0
2014-Aug-29 06:31N 53°30' E 009°56'0 0.0
2014-Aug-29 05:31N 53°30' E 009°56'  
Track history (hours):
 
Tides and Currents Weather Stations Pressure Air Temp Water Temp Dewpoint Dewpoint Depression Visibility Wind Speed Wind Dir Waves Ship Positions

Nyk Olympus

Last reported at 2014-Sep-08 05:17 UTC. Time now 2014-Sep-20 03:55 UTC.
Position N 36°29' E 013°59'.
Warning: this ship's position is 11 days out of date.

Length 335 m; draft 12.6 m.

Type: Ship. MMSI: 372478000.

Date/timePositionNaut miles runAvg speedWind from/ knotsBaromVisibWave heightAir tempDewpointWater temp
2014-Sep-08 05:17N 36°29' E 013°59'1318.1
2014-Sep-08 04:34N 36°33' E 013°43'1818.0
2014-Sep-08 03:34N 36°38' E 013°22'1717.3
2014-Sep-08 02:34N 36°43' E 013°01'1817.1
2014-Sep-08 01:31N 36°49' E 012°40'5016.9
2014-Sep-07 22:34N 37°07' E 011°41'1717.3
2014-Sep-07 21:34N 37°15' E 011°22'1717.1
2014-Sep-07 20:34N 37°23' E 011°03'1717.1
2014-Sep-07 19:34N 37°27' E 010°42'1717.3
2014-Sep-07 18:34N 37°32' E 010°21'1817.2
2014-Sep-07 17:31N 37°33' E 009°59'1717.4
2014-Sep-07 16:33N 37°30' E 009°38'1717.3
2014-Sep-07 15:33N 37°25' E 009°17'1717.0
2014-Sep-07 14:33N 37°21' E 008°56'1716.6
2014-Sep-07 13:32N 37°18' E 008°35'1616.4
2014-Sep-07 12:33N 37°18' E 008°15'1616.4
2014-Sep-07 11:32N 37°18' E 007°54'18516.9
2014-Sep-07 00:33N 37°11' E 004°01'1717.1
2014-Sep-06 23:33N 37°08' E 003°40'1717.0
2014-Sep-06 22:33N 37°05' E 003°19'1817.6
2014-Sep-06 21:33N 37°03' E 002°57'1817.7
2014-Sep-06 20:33N 37°00' E 002°35'1717.3
2014-Sep-06 19:33N 36°58' E 002°14'1817.7
2014-Sep-06 18:33N 36°54' E 001°52'1917.2
2014-Sep-06 17:25N 36°51' E 001°28'1717.5
2014-Sep-06 16:27N 36°48' E 001°07'1817.9
2014-Sep-06 15:25N 36°45' E 000°44'1618.4
2014-Sep-06 14:33N 36°43' E 000°25'2018.0
2014-Sep-06 13:27N 36°40' E 000°00'1618.0
2014-Sep-06 12:33N 36°38' W 000°20'1817.6
2014-Sep-06 11:33N 36°35' W 000°41'1717.2
2014-Sep-06 10:33N 36°32' W 001°02'1817.2
2014-Sep-06 09:30N 36°29' W 001°25'2017.3
2014-Sep-06 08:19N 36°25' W 001°50'17517.9
2014-Sep-05 22:34N 35°58' W 005°24'15417.0
2014-Sep-05 13:32N 36°26' W 008°31'1717.2
2014-Sep-05 12:32N 36°30' W 008°52'3316.6
2014-Sep-05 10:33N 36°45' W 009°28'2016.9
2014-Sep-05 09:20N 37°05' W 009°36'1418.5
2014-Sep-05 08:33N 37°19' W 009°41'1818.1
2014-Sep-05 07:33N 37°36' W 009°46'11818.3
2014-Sep-05 01:04N 39°34' W 010°04'71716.9
2014-Sep-03 06:33N 49°53' W 001°36'2220.6
2014-Sep-03 05:29N 49°46' W 001°04'1819.2
2014-Sep-03 04:33N 49°39' W 000°39'1818.0
2014-Sep-03 03:34N 49°33' W 000°13'1312.8
2014-Sep-03 02:33N 49°28' E 000°06'2 2.3
2014-Sep-03 01:33N 49°28' E 000°09'0 0.0
2014-Sep-03 00:33N 49°28' E 000°09'0 0.0
2014-Sep-02 23:33N 49°28' E 000°09'0 0.0
2014-Sep-02 22:33N 49°28' E 000°09'0 0.0
2014-Sep-02 21:33N 49°28' E 000°09'0 0.0
2014-Sep-02 20:33N 49°28' E 000°09'0 0.0
2014-Sep-02 19:33N 49°28' E 000°09'0 0.0
2014-Sep-02 18:33N 49°28' E 000°09'0 0.0
2014-Sep-02 17:33N 49°28' E 000°09'0 0.0
2014-Sep-02 16:33N 49°28' E 000°09'0 0.0
2014-Sep-02 15:33N 49°28' E 000°09'0 0.0
2014-Sep-02 14:33N 49°28' E 000°09'0 0.0
2014-Sep-02 13:33N 49°28' E 000°09'0 0.0
2014-Sep-02 12:33N 49°28' E 000°09'0 0.0
2014-Sep-02 11:33N 49°28' E 000°09'0 0.0
2014-Sep-02 10:33N 49°28' E 000°09'0 0.0
2014-Sep-02 09:33N 49°28' E 000°09'0 0.0
2014-Sep-02 08:33N 49°28' E 000°09'0 0.0
2014-Sep-02 07:33N 49°28' E 000°09'0 0.0
2014-Sep-02 06:33N 49°28' E 000°09'0 0.0
2014-Sep-02 05:33N 49°28' E 000°09'0 0.0
2014-Sep-02 04:33N 49°28' E 000°09'0 0.0
2014-Sep-02 03:33N 49°28' E 000°09'0 0.0
2014-Sep-02 02:33N 49°28' E 000°09'0 0.0
2014-Sep-02 01:33N 49°28' E 000°09'0 0.0
2014-Sep-02 00:33N 49°28' E 000°09'0 0.0
2014-Sep-01 23:33N 49°28' E 000°09'0 0.0
2014-Sep-01 22:33N 49°28' E 000°09'0 0.0
2014-Sep-01 21:33N 49°28' E 000°09'0 0.0
2014-Sep-01 20:33N 49°28' E 000°09'0 0.0
2014-Sep-01 19:33N 49°28' E 000°09'0 0.0
2014-Sep-01 18:33N 49°28' E 000°09'0 0.0
2014-Sep-01 17:27N 49°28' E 000°09'3 3.7
2014-Sep-01 16:33N 49°29' E 000°05'1110.9
2014-Sep-01 15:34N 49°33' W 000°11'1312.4
2014-Sep-01 14:32N 49°45' W 000°19'5317.4
2014-Sep-01 11:28N 50°33' W 000°55'1010.8
2014-Sep-01 10:34N 50°43' W 000°58'1413.7
2014-Sep-01 09:33N 50°48' W 001°17'8 7.9
2014-Sep-01 08:33N 50°54' W 001°26'1 0.9
2014-Sep-01 07:30N 50°54' W 001°27'0 0.0
2014-Sep-01 06:30N 50°54' W 001°27'0 0.0
2014-Sep-01 05:33N 50°54' W 001°27'0 0.0
2014-Sep-01 04:33N 50°54' W 001°27'0 0.0
2014-Sep-01 03:33N 50°54' W 001°27'0 0.0
2014-Sep-01 02:33N 50°54' W 001°27'0 0.0
2014-Sep-01 01:33N 50°54' W 001°27'0 0.0
2014-Sep-01 00:33N 50°54' W 001°27'0 0.0
2014-Aug-31 23:33N 50°54' W 001°27'0 0.0
2014-Aug-31 22:30N 50°54' W 001°27'0 0.0
2014-Aug-31 21:33N 50°54' W 001°27'0 0.0
2014-Aug-31 20:33N 50°54' W 001°27'0 0.0
2014-Aug-31 19:33N 50°54' W 001°27'0 0.0
2014-Aug-31 18:33N 50°54' W 001°27'0 0.0
2014-Aug-31 17:30N 50°54' W 001°27'0 0.0
2014-Aug-31 16:33N 50°54' W 001°27'0 0.0
2014-Aug-31 15:30N 50°54' W 001°27'0 0.0
2014-Aug-31 14:33N 50°54' W 001°27'0 0.0
2014-Aug-31 13:30N 50°54' W 001°27'0 0.0
2014-Aug-31 12:33N 50°54' W 001°27'0 0.0
2014-Aug-31 11:33N 50°54' W 001°27'0 0.0
2014-Aug-31 10:30N 50°54' W 001°27'0 0.0
2014-Aug-31 09:33N 50°54' W 001°27'0 0.0
2014-Aug-31 08:30N 50°54' W 001°27'0 0.0
2014-Aug-31 07:33N 50°54' W 001°27'1 1.1
2014-Aug-31 06:33N 50°54' W 001°26'7 7.1
2014-Aug-31 05:34N 50°49' W 001°18'1110.7
2014-Aug-31 04:33N 50°44' W 001°03'1111.0
2014-Aug-31 03:34N 50°36' W 000°52'1414.2
2014-Aug-31 02:33N 50°33' W 000°30'1716.9
2014-Aug-31 01:33N 50°33' W 000°03'1716.8
2014-Aug-31 00:34N 50°37' E 000°23'1616.3
2014-Aug-30 23:33N 50°43' E 000°46'1817.7
2014-Aug-30 22:33N 50°52' E 001°10'2020.1
2014-Aug-30 21:33N 51°05' E 001°34'2019.6
2014-Aug-30 20:33N 51°21' E 001°53'1818.1
2014-Aug-30 19:33N 51°36' E 002°09'1717.3
2014-Aug-30 18:33N 51°49' E 002°28'9317.2
2014-Aug-30 13:10N 53°01' E 004°03'1118.8
2014-Aug-30 12:33N 53°08' E 004°18'3617.8
2014-Aug-30 10:32N 53°34' E 005°00'1717.5
2014-Aug-30 09:33N 53°40' E 005°27'1717.4
2014-Aug-30 08:33N 53°45' E 005°55'5717.9
2014-Aug-30 05:22N 53°60' E 007°29'1518.1
2014-Aug-30 04:33N 54°02' E 007°53'1414.2
2014-Aug-30 03:33N 54°00' E 008°17'1514.9
2014-Aug-30 02:33N 53°55' E 008°41'1010.3
2014-Aug-30 01:33N 53°51' E 008°57'9 8.6
2014-Aug-30 00:33N 53°53' E 009°12'1211.6
2014-Aug-29 23:33N 53°45' E 009°25'1312.9
2014-Aug-29 22:34N 53°34' E 009°39'1010.1
2014-Aug-29 21:34N 53°32' E 009°55'2 2.1
2014-Aug-29 20:31N 53°30' E 009°56'0 0.0
2014-Aug-29 19:31N 53°30' E 009°56'0 0.0
2014-Aug-29 18:31N 53°30' E 009°56'0 0.0
2014-Aug-29 17:31N 53°30' E 009°56'0 0.0
2014-Aug-29 16:28N 53°30' E 009°56'0 0.0
2014-Aug-29 15:31N 53°30' E 009°56'0 0.0
2014-Aug-29 14:31N 53°30' E 009°56'0 0.0
2014-Aug-29 13:31N 53°30' E 009°56'0 0.0
2014-Aug-29 12:31N 53°30' E 009°56'0 0.0
2014-Aug-29 11:31N 53°30' E 009°56'0 0.0
2014-Aug-29 10:31N 53°30' E 009°56'0 0.0
2014-Aug-29 09:31N 53°30' E 009°56'0 0.0
2014-Aug-29 08:25N 53°30' E 009°56'0 0.0
2014-Aug-29 07:31N 53°30' E 009°56'0 0.0
2014-Aug-29 06:31N 53°30' E 009°56'0 0.0
2014-Aug-29 05:31N 53°30' E 009°56'  

Dump ship's entire track history